Aviation Digital Data Service (ADDS)

Output produced by METARs form (1920 UTC 26 April 2015)
found at http://www.aviationweather.gov/adds/metars/
 
KSPI 261736Z 2618/2718 03010G17KT P6SM SCT045 
     FM270100 VRB03KT P6SM SKC 
     FM271400 01012KT P6SM SKC